Time;durP1;ratioP1;P1;durP2;ratioP2;P2;SDS_P1;SDS_P2;PMS_P1;PMS_P2;Temp;Humidity;BMP_temperature;BMP_pressure;BME280_temperature;BME280_humidity;BME280_pressure;Samples;Min_cycle;Max_cycle;Signal;HPM_P1;HPM_P2
2023/07/18 00:02:11;;;;;;;7.37;2.53;;;15.70;99.90;;;;;;5008626;28;20220;-75
2023/07/18 00:04:39;;;;;;;6.03;2.40;;;15.70;99.90;;;;;;5001718;28;20265;-74
2023/07/18 00:07:07;;;;;;;3.77;2.07;;;15.70;99.90;;;;;;5006039;28;20195;-72
2023/07/18 00:09:37;;;;;;;6.87;2.60;;;15.70;99.90;;;;;;5008156;28;20233;-73
2023/07/18 00:12:05;;;;;;;5.47;2.87;;;15.70;99.90;;;;;;5008907;28;20225;-72
2023/07/18 00:14:32;;;;;;;3.30;2.33;;;15.70;99.90;;;;;;5008705;28;20242;-73
2023/07/18 00:16:59;;;;;;;7.90;2.60;;;15.70;99.90;;;;;;4990916;28;20218;-74
2023/07/18 00:19:29;;;;;;;6.60;2.63;;;15.70;99.90;;;;;;5009073;28;20202;-76
2023/07/18 00:21:56;;;;;;;7.43;2.30;;;15.70;99.90;;;;;;5004779;28;20220;-74
2023/07/18 00:24:23;;;;;;;3.33;1.90;;;15.60;99.90;;;;;;5002628;28;20241;-73
2023/07/18 00:26:50;;;;;;;4.20;2.00;;;15.60;99.90;;;;;;4998715;28;20226;-75
2023/07/18 00:29:17;;;;;;;6.03;2.23;;;15.60;99.90;;;;;;5010918;28;20581;-73
2023/07/18 00:31:44;;;;;;;4.60;2.20;;;15.60;99.90;;;;;;5009682;28;20251;-72
2023/07/18 00:34:11;;;;;;;3.87;2.07;;;15.60;99.90;;;;;;5003288;28;20212;-77
2023/07/18 00:36:38;;;;;;;5.17;2.07;;;15.60;99.90;;;;;;4992991;28;20215;-75
2023/07/18 00:39:05;;;;;;;4.93;2.00;;;15.60;99.90;;;;;;5010681;28;20226;-73
2023/07/18 00:41:32;;;;;;;3.80;2.17;;;15.60;99.90;;;;;;5010907;28;20332;-75
2023/07/18 00:43:58;;;;;;;5.30;1.97;;;15.50;99.90;;;;;;5018375;28;20303;-76
2023/07/18 00:46:25;;;;;;;5.07;2.50;;;15.50;99.90;;;;;;5031972;28;20646;-76
2023/07/18 00:48:53;;;;;;;2.50;1.77;;;15.60;99.90;;;;;;5030172;28;20264;-74
2023/07/18 00:51:19;;;;;;;5.33;2.70;;;15.50;99.90;;;;;;5023632;28;20202;-73
2023/07/18 00:53:47;;;;;;;8.40;2.40;;;15.60;99.90;;;;;;5031327;28;20303;-74
2023/07/18 00:56:17;;;;;;;4.97;2.30;;;15.50;99.90;;;;;;5028191;28;20190;-74
2023/07/18 00:58:44;;;;;;;7.20;2.20;;;15.50;99.90;;;;;;5027651;28;20205;-72
2023/07/18 01:01:11;;;;;;;5.97;2.10;;;15.60;99.90;;;;;;5014552;28;20206;-71
2023/07/18 01:03:38;;;;;;;5.70;2.07;;;15.60;99.90;;;;;;5017395;28;20614;-73
2023/07/18 01:06:06;;;;;;;3.37;2.27;;;15.60;99.90;;;;;;5031449;28;20328;-73
2023/07/18 01:08:33;;;;;;;4.97;2.00;;;15.50;99.90;;;;;;5031940;28;20206;-73
2023/07/18 01:10:59;;;;;;;3.27;1.97;;;15.50;99.90;;;;;;5025983;28;20284;-76
2023/07/18 01:13:26;;;;;;;5.70;2.43;;;15.50;99.90;;;;;;5024981;28;20764;-73
2023/07/18 01:15:53;;;;;;;4.20;1.87;;;15.50;99.90;;;;;;5031260;28;20225;-76
2023/07/18 01:18:20;;;;;;;4.87;1.83;;;15.50;99.90;;;;;;5027516;28;20335;-75
2023/07/18 01:20:48;;;;;;;4.60;1.70;;;15.40;99.90;;;;;;5028907;28;20651;-74
2023/07/18 01:23:15;;;;;;;4.07;1.97;;;15.40;99.90;;;;;;5021559;28;20285;-74
2023/07/18 01:25:42;;;;;;;4.10;1.57;;;15.40;99.90;;;;;;5013442;28;20222;-75
2023/07/18 01:28:10;;;;;;;6.10;2.40;;;15.30;99.90;;;;;;5031623;28;20226;-76
2023/07/18 01:30:37;;;;;;;5.90;1.83;;;15.30;99.90;;;;;;5029126;28;20317;-74
2023/07/18 01:33:04;;;;;;;5.37;2.10;;;15.30;99.90;;;;;;5030528;28;20241;-73
2023/07/18 01:35:32;;;;;;;6.87;2.07;;;15.20;99.90;;;;;;5031284;28;20210;-72
2023/07/18 01:37:59;;;;;;;8.43;2.30;;;15.20;99.90;;;;;;5019649;28;20209;-73
2023/07/18 01:40:26;;;;;;;5.00;2.07;;;15.20;99.90;;;;;;5025481;28;20576;-72
2023/07/18 01:42:54;;;;;;;3.63;2.03;;;15.10;99.90;;;;;;5017696;28;20262;-75
2023/07/18 01:45:24;;;;;;;4.60;2.07;;;15.20;99.90;;;;;;5008419;28;20257;-72
2023/07/18 01:47:51;;;;;;;6.17;2.10;;;15.10;99.90;;;;;;5009040;28;20226;-73
2023/07/18 01:50:19;;;;;;;3.80;1.83;;;15.10;99.90;;;;;;5011285;28;20198;-72
2023/07/18 01:52:50;;;;;;;4.03;1.83;;;15.10;99.90;;;;;;5003165;28;20246;-72
2023/07/18 01:55:17;;;;;;;4.03;1.90;;;15.10;99.90;;;;;;5005290;28;20214;-72
2023/07/18 01:57:48;;;;;;;3.37;1.70;;;15.00;99.90;;;;;;4993488;28;20215;-72
2023/07/18 02:00:20;;;;;;;4.73;1.87;;;15.00;99.90;;;;;;5007964;28;20273;-73
2023/07/18 02:02:52;;;;;;;3.53;1.77;;;15.00;99.90;;;;;;5007256;28;20990;-73
2023/07/18 02:05:23;;;;;;;3.60;1.53;;;15.00;99.90;;;;;;5006976;28;20596;-74
2023/07/18 02:07:51;;;;;;;7.80;2.03;;;15.00;99.90;;;;;;5001580;28;20203;-74
2023/07/18 02:10:20;;;;;;;5.63;1.83;;;15.00;99.90;;;;;;5001943;28;20247;-73
2023/07/18 02:12:48;;;;;;;5.70;2.37;;;14.90;99.90;;;;;;5003353;28;20214;-73
2023/07/18 02:15:15;;;;;;;6.50;2.10;;;15.00;99.90;;;;;;5007058;28;20214;-73
2023/07/18 02:17:42;;;;;;;3.87;1.93;;;14.90;99.90;;;;;;5005525;28;20202;-72
2023/07/18 02:20:11;;;;;;;4.63;1.70;;;14.90;99.90;;;;;;5010269;28;20257;-73
2023/07/18 02:22:41;;;;;;;1.90;1.77;;;14.90;99.90;;;;;;5005924;28;20232;-73
2023/07/18 02:25:09;;;;;;;5.67;1.90;;;14.90;99.90;;;;;;5009535;28;20377;-75
2023/07/18 02:27:38;;;;;;;5.77;1.87;;;14.90;99.90;;;;;;5005205;28;20269;-73
2023/07/18 02:30:09;;;;;;;4.20;2.57;;;14.90;99.90;;;;;;5007917;28;20713;-74
2023/07/18 02:32:36;;;;;;;2.03;1.63;;;14.80;99.90;;;;;;5005622;28;20215;-73
2023/07/18 02:35:03;;;;;;;6.43;2.87;;;14.80;99.90;;;;;;5008244;28;20630;-73
2023/07/18 02:37:30;;;;;;;4.50;1.90;;;14.80;99.90;;;;;;4988970;28;20281;-72
2023/07/18 02:39:57;;;;;;;3.60;1.80;;;14.80;99.90;;;;;;5009438;28;20294;-74
2023/07/18 02:42:24;;;;;;;6.70;2.00;;;14.80;99.90;;;;;;5010059;28;20229;-74
2023/07/18 02:44:51;;;;;;;4.33;2.27;;;14.70;99.90;;;;;;5025893;28;20318;-73
2023/07/18 02:47:18;;;;;;;3.87;2.10;;;14.70;99.90;;;;;;5027281;28;20214;-73
2023/07/18 02:49:44;;;;;;;4.53;1.90;;;14.70;99.90;;;;;;5011438;28;20272;-73
2023/07/18 02:52:11;;;;;;;3.37;1.83;;;14.60;99.90;;;;;;5011217;28;20220;-72
2023/07/18 02:54:38;;;;;;;3.13;1.80;;;14.60;99.90;;;;;;5027665;28;20569;-73
2023/07/18 02:57:05;;;;;;;4.03;2.07;;;14.60;99.90;;;;;;5024888;28;20628;-73
2023/07/18 02:59:32;;;;;;;7.77;2.10;;;14.60;99.90;;;;;;5029197;28;20297;-72
2023/07/18 03:02:01;;;;;;;3.50;1.70;;;14.50;99.90;;;;;;5026555;28;20257;-72
2023/07/18 03:04:28;;;;;;;3.97;2.10;;;14.50;99.90;;;;;;5021216;28;20234;-72
2023/07/18 03:06:54;;;;;;;4.37;2.00;;;14.50;99.90;;;;;;5029378;28;20233;-73
2023/07/18 03:09:21;;;;;;;5.80;2.00;;;14.50;99.90;;;;;;5011586;28;20291;-73
2023/07/18 03:11:51;;;;;;;5.27;2.27;;;14.50;99.90;;;;;;5027889;28;20222;-73
2023/07/18 03:14:19;;;;;;;6.03;2.20;;;14.50;99.90;;;;;;5025863;28;20206;-72
2023/07/18 03:16:47;;;;;;;4.20;2.00;;;14.50;99.90;;;;;;5022461;28;20210;-75
2023/07/18 03:19:15;;;;;;;4.70;2.10;;;14.40;99.90;;;;;;5028945;28;20617;-73
2023/07/18 03:21:43;;;;;;;9.53;2.20;;;14.40;99.90;;;;;;5011445;28;20210;-76
2023/07/18 03:24:10;;;;;;;2.57;2.20;;;14.40;99.90;;;;;;5011241;28;20210;-75
2023/07/18 03:26:37;;;;;;;5.13;2.20;;;14.40;99.90;;;;;;5029188;28;20248;-74
2023/07/18 03:29:05;;;;;;;5.33;2.37;;;14.40;99.90;;;;;;5028660;28;20213;-72
2023/07/18 03:31:35;;;;;;;3.73;1.77;;;14.40;99.90;;;;;;5027325;28;20229;-76
2023/07/18 03:34:04;;;;;;;5.93;2.20;;;14.40;99.90;;;;;;5013424;28;20198;-73
2023/07/18 03:36:32;;;;;;;5.27;2.43;;;14.40;99.90;;;;;;5027996;28;20313;-73
2023/07/18 03:38:59;;;;;;;10.37;2.23;;;14.30;99.90;;;;;;5010957;28;20198;-73
2023/07/18 03:41:26;;;;;;;4.87;2.00;;;14.30;99.90;;;;;;5028461;28;20222;-72
2023/07/18 03:43:53;;;;;;;3.50;2.47;;;14.30;99.90;;;;;;5012877;28;20238;-73
2023/07/18 03:46:21;;;;;;;3.20;1.73;;;14.30;99.90;;;;;;5009363;28;20695;-74
2023/07/18 03:48:48;;;;;;;3.53;2.50;;;14.30;99.90;;;;;;5004857;28;20557;-73
2023/07/18 03:51:15;;;;;;;3.13;2.00;;;14.30;99.90;;;;;;5008610;28;20276;-76
2023/07/18 03:53:43;;;;;;;4.50;2.20;;;14.30;99.90;;;;;;4990389;28;20207;-72
2023/07/18 03:56:11;;;;;;;4.60;1.97;;;14.20;99.90;;;;;;4997710;28;20210;-74
2023/07/18 03:58:39;;;;;;;5.83;2.37;;;14.30;99.90;;;;;;5008501;28;20253;-72
2023/07/18 04:01:07;;;;;;;7.20;2.07;;;14.20;99.90;;;;;;5009009;28;21649;-73
2023/07/18 04:03:35;;;;;;;4.20;2.27;;;14.20;99.90;;;;;;5008491;28;20207;-72
2023/07/18 04:06:02;;;;;;;5.70;2.50;;;14.30;99.90;;;;;;5006736;28;20242;-72
2023/07/18 04:08:29;;;;;;;6.53;2.13;;;14.20;99.90;;;;;;5009625;28;20210;-72
2023/07/18 04:10:58;;;;;;;3.10;1.90;;;14.30;99.90;;;;;;5008499;28;20256;-73
2023/07/18 04:13:25;;;;;;;4.10;2.33;;;14.30;99.90;;;;;;4991532;28;20222;-73
2023/07/18 04:15:54;;;;;;;5.20;2.03;;;14.40;99.90;;;;;;5009120;28;20218;-72
2023/07/18 04:18:21;;;;;;;4.47;2.23;;;14.40;99.90;;;;;;4990738;28;20202;-74
2023/07/18 04:20:49;;;;;;;5.37;2.50;;;14.50;99.90;;;;;;5002122;28;20272;-71
2023/07/18 04:23:16;;;;;;;3.63;2.03;;;14.50;99.90;;;;;;4996130;28;20750;-72
2023/07/18 04:25:58;;;;;;;5.77;1.90;;;14.60;99.90;;;;;;5005522;28;20242;-72
2023/07/18 04:28:29;;;;;;;2.83;2.00;;;14.60;99.90;;;;;;5007615;28;20261;-72
2023/07/18 04:30:56;;;;;;;4.33;2.10;;;14.60;99.90;;;;;;5007805;28;20210;-72
2023/07/18 04:33:24;;;;;;;4.03;2.10;;;14.70;99.90;;;;;;4991129;28;20202;-73
2023/07/18 04:35:50;;;;;;;3.03;2.13;;;14.70;99.90;;;;;;5008456;28;20242;-72
2023/07/18 04:38:17;;;;;;;2.90;1.73;;;14.70;99.90;;;;;;5007349;28;20207;-72
2023/07/18 04:40:44;;;;;;;3.33;1.90;;;14.80;99.90;;;;;;5005081;28;20211;-72
2023/07/18 04:43:11;;;;;;;4.33;2.23;;;14.80;99.90;;;;;;5007889;28;20284;-72
2023/07/18 04:45:46;;;;;;;3.63;2.00;;;14.90;99.90;;;;;;4985999;28;20237;-72
2023/07/18 04:48:14;;;;;;;5.20;2.33;;;14.90;99.90;;;;;;5006951;28;20211;-72
2023/07/18 04:50:41;;;;;;;7.30;2.27;;;14.90;99.90;;;;;;5006097;28;20199;-72
2023/07/18 04:53:09;;;;;;;4.23;2.37;;;14.90;99.90;;;;;;5005870;28;20979;-72
2023/07/18 04:55:37;;;;;;;4.57;2.30;;;14.90;99.90;;;;;;5007372;28;20215;-72
2023/07/18 04:58:07;;;;;;;4.43;2.43;;;14.90;99.90;;;;;;5005452;28;20215;-74
2023/07/18 05:00:34;;;;;;;7.87;2.30;;;15.00;99.90;;;;;;5006414;28;20233;-72
2023/07/18 05:03:01;;;;;;;6.87;2.30;;;15.00;99.90;;;;;;5007252;28;20206;-72
2023/07/18 05:05:29;;;;;;;4.87;2.13;;;15.00;99.90;;;;;;5007408;28;20285;-72
2023/07/18 05:08:00;;;;;;;4.87;2.77;;;15.10;99.90;;;;;;5004470;28;20198;-72
2023/07/18 05:10:27;;;;;;;4.37;2.60;;;15.20;99.90;;;;;;4985085;28;20207;-72
2023/07/18 05:12:55;;;;;;;4.53;2.27;;;15.20;99.90;;;;;;5000239;28;20239;-71
2023/07/18 05:15:22;;;;;;;7.40;2.20;;;15.40;99.90;;;;;;5005771;28;20280;-71
2023/07/18 05:17:49;;;;;;;6.53;2.20;;;15.40;99.90;;;;;;5005944;28;20280;-72
2023/07/18 05:20:16;;;;;;;3.73;2.20;;;15.50;99.90;;;;;;5008330;28;20210;-72
2023/07/18 05:22:44;;;;;;;5.07;2.20;;;15.60;99.90;;;;;;5006899;28;20207;-73
2023/07/18 05:25:14;;;;;;;3.90;2.40;;;15.60;99.90;;;;;;5009542;28;20242;-72
2023/07/18 05:27:41;;;;;;;5.20;2.60;;;15.70;99.90;;;;;;4999276;28;20301;-73
2023/07/18 05:30:16;;;;;;;4.70;2.50;;;16.00;99.90;;;;;;5008491;28;20221;-72
2023/07/18 05:32:44;;;;;;;5.67;2.30;;;15.90;99.90;;;;;;5008514;28;20622;-72
2023/07/18 05:35:15;;;;;;;5.37;2.43;;;16.10;99.90;;;;;;5008466;28;20603;-72
2023/07/18 05:37:43;;;;;;;4.63;2.43;;;16.20;99.90;;;;;;4993102;28;20210;-73
2023/07/18 05:40:11;;;;;;;3.63;2.00;;;16.30;99.90;;;;;;5009292;28;20282;-71
2023/07/18 05:42:38;;;;;;;7.80;2.08;;;16.50;99.90;;;;;;5009463;28;20292;-72
2023/07/18 05:45:07;;;;;;;6.13;2.13;;;;;;;;;;5011927;28;20226;-74
2023/07/18 05:47:35;;;;;;;4.15;2.08;;;18.40;99.90;;;;;;5013310;28;20210;-72
2023/07/18 05:50:04;;;;;;;7.53;2.40;;;19.60;99.90;;;;;;5030593;28;20692;-73
2023/07/18 05:52:31;;;;;;;4.85;2.35;;;;;;;;;;5030112;28;20650;-73
2023/07/18 05:54:58;;;;;;;6.72;2.17;;;21.80;99.90;;;;;;5030333;28;20214;-72
2023/07/18 05:57:25;;;;;;;4.78;1.95;;;22.80;99.90;;;;;;5023242;28;20213;-72
2023/07/18 05:59:52;;;;;;;2.78;1.70;;;23.40;99.90;;;;;;5026065;28;20267;-73
2023/07/18 06:02:20;;;;;;;4.00;1.65;;;23.70;99.90;;;;;;5029950;28;20202;-74
2023/07/18 06:04:47;;;;;;;3.00;1.65;;;23.90;99.90;;;;;;5030355;28;20245;-74
2023/07/18 06:07:15;;;;;;;4.75;1.70;;;24.10;99.90;;;;;;5024753;28;20227;-73
2023/07/18 06:09:42;;;;;;;2.38;1.30;;;24.40;99.90;;;;;;5028033;28;20549;-72
2023/07/18 06:12:09;;;;;;;5.18;1.67;;;24.60;99.90;;;;;;5024159;28;20258;-73
2023/07/18 06:14:36;;;;;;;6.38;1.50;;;24.60;99.90;;;;;;5027844;28;20202;-74
2023/07/18 06:17:03;;;;;;;3.88;1.58;;;24.10;99.90;;;;;;5024085;28;20210;-73
2023/07/18 06:19:30;;;;;;;5.53;1.60;;;23.80;99.90;;;;;;5008885;28;20773;-71
2023/07/18 06:21:57;;;;;;;2.75;1.60;;;23.90;99.90;;;;;;5021442;28;20206;-73
2023/07/18 06:24:24;;;;;;;4.07;1.50;;;23.90;99.90;;;;;;5028525;28;20559;-72
2023/07/18 06:26:51;;;;;;;4.43;1.35;;;24.10;99.90;;;;;;5017376;28;20234;-72
2023/07/18 06:29:19;;;;;;;3.38;1.70;;;24.30;99.90;;;;;;5031703;28;20198;-73
2023/07/18 06:31:48;;;;;;;4.20;1.50;;;24.50;99.90;;;;;;5025896;28;20515;-73
2023/07/18 06:34:18;;;;;;;3.42;1.50;;;24.80;99.90;;;;;;5030136;28;20646;-73
2023/07/18 06:36:46;;;;;;;3.95;1.45;;;25.40;99.90;;;;;;5025915;28;20298;-73
2023/07/18 06:39:16;;;;;;;3.58;1.67;;;;;;;;;;5027942;28;20229;-73
2023/07/18 06:41:46;;;;;;;5.22;1.83;;;26.60;99.90;;;;;;5027388;28;20222;-73
2023/07/18 06:44:14;;;;;;;4.82;1.25;;;27.00;99.90;;;;;;5010678;28;20230;-74
2023/07/18 06:46:41;;;;;;;5.88;1.80;;;27.10;99.90;;;;;;4987234;28;20238;-76
2023/07/18 06:49:10;;;;;;;4.35;1.50;;;27.30;99.90;;;;;;5000591;28;20213;-74
2023/07/18 06:51:37;;;;;;;4.25;1.52;;;27.80;99.90;;;;;;4999406;28;20211;-75
2023/07/18 06:54:04;;;;;;;4.18;1.60;;;28.50;99.90;;;;;;4999794;28;20211;-73
2023/07/18 06:56:31;;;;;;;3.42;1.30;;;29.10;99.90;;;;;;4977272;28;20231;-73
2023/07/18 06:58:57;;;;;;;2.83;1.27;;;29.70;99.90;;;;;;4999403;28;20203;-74
2023/07/18 07:01:24;;;;;;;3.40;1.30;;;30.10;99.90;;;;;;5000974;28;20211;-73
2023/07/18 07:03:51;;;;;;;4.68;1.50;;;30.10;99.90;;;;;;4996397;28;20199;-73
2023/07/18 07:06:20;;;;;;;4.13;1.35;;;30.20;99.90;;;;;;4994037;28;20765;-73
2023/07/18 07:08:47;;;;;;;3.03;1.50;;;30.00;99.90;;;;;;4999241;28;20211;-74
2023/07/18 07:11:13;;;;;;;4.95;1.30;;;29.60;99.40;;;;;;5000866;28;20203;-74
2023/07/18 07:13:40;;;;;;;3.45;1.20;;;29.70;99.40;;;;;;4977175;28;20253;-74
2023/07/18 07:16:07;;;;;;;2.35;1.00;;;29.50;98.60;;;;;;5002540;28;20580;-75
2023/07/18 07:18:34;;;;;;;2.55;1.33;;;29.50;98.60;;;;;;4983533;28;20215;-74
2023/07/18 07:21:01;;;;;;;2.38;1.10;;;29.80;98.20;;;;;;5003678;28;20290;-74
2023/07/18 07:23:30;;;;;;;3.90;1.08;;;29.80;97.60;;;;;;4994904;28;20223;-73
2023/07/18 07:25:58;;;;;;;2.42;0.93;;;29.60;97.10;;;;;;4999421;28;20238;-75
2023/07/18 07:28:24;;;;;;;2.30;0.85;;;29.90;97.30;;;;;;4996043;28;20231;-74
2023/07/18 07:30:52;;;;;;;1.55;0.60;;;30.20;96.20;;;;;;5004567;28;20215;-74
2023/07/18 07:33:19;;;;;;;2.42;0.80;;;30.60;94.90;;;;;;5004970;28;20612;-77
2023/07/18 07:35:46;;;;;;;2.45;0.68;;;30.40;93.30;;;;;;5000761;28;20214;-74
2023/07/18 07:38:14;;;;;;;3.28;0.68;;;30.00;93.10;;;;;;4995605;28;20218;-73
2023/07/18 07:40:41;;;;;;;1.50;0.60;;;30.40;93.10;;;;;;5004134;28;20210;-75
2023/07/18 07:43:08;;;;;;;1.20;0.73;;;30.70;91.80;;;;;;4992403;28;20238;-74
2023/07/18 07:45:34;;;;;;;3.22;0.52;;;30.50;91.40;;;;;;5005857;28;20221;-74
2023/07/18 07:48:01;;;;;;;2.05;0.68;;;30.30;90.80;;;;;;4988794;28;20214;-74
2023/07/18 07:50:28;;;;;;;1.55;0.65;;;30.30;90.70;;;;;;4990666;28;20198;-73
2023/07/18 07:52:55;;;;;;;1.10;0.40;;;30.20;90.40;;;;;;4991429;28;20214;-74
2023/07/18 07:55:22;;;;;;;2.20;0.60;;;29.80;89.60;;;;;;5004670;28;20223;-74
2023/07/18 07:57:49;;;;;;;1.60;0.60;;;29.70;90.30;;;;;;5008014;28;20232;-74
2023/07/18 08:00:16;;;;;;;1.23;0.60;;;29.90;90.00;;;;;;5008751;28;20206;-73
2023/07/18 08:02:43;;;;;;;1.98;0.70;;;29.80;89.90;;;;;;5001564;28;20214;-75
2023/07/18 08:05:10;;;;;;;3.00;0.90;;;30.00;90.30;;;;;;5002670;28;20284;-74
2023/07/18 08:07:38;;;;;;;0.95;0.63;;;29.90;90.00;;;;;;4983684;28;20225;-74
2023/07/18 08:10:05;;;;;;;1.65;0.77;;;30.20;89.90;;;;;;5008071;28;20675;-73
2023/07/18 08:12:32;;;;;;;2.58;0.60;;;30.20;88.40;;;;;;5004317;28;20223;-74
2023/07/18 08:14:58;;;;;;;1.10;0.50;;;29.90;86.50;;;;;;5004892;28;20988;-73
2023/07/18 08:17:25;;;;;;;1.88;0.47;;;29.80;86.80;;;;;;5009152;28;20214;-74
2023/07/18 08:19:52;;;;;;;3.45;0.60;;;30.10;87.30;;;;;;4987121;28;20645;-73
2023/07/18 08:22:19;;;;;;;2.15;0.63;;;30.20;85.50;;;;;;5003421;28;20214;-75
2023/07/18 08:24:46;;;;;;;0.77;0.50;;;30.30;85.00;;;;;;5006735;28;20634;-73
2023/07/18 08:27:12;;;;;;;1.08;0.40;;;30.40;85.00;;;;;;5004767;28;20241;-73
2023/07/18 08:29:41;;;;;;;1.45;0.60;;;30.40;83.40;;;;;;5007384;28;20474;-74
2023/07/18 08:32:09;;;;;;;2.55;0.80;;;30.10;84.60;;;;;;5005018;28;20321;-73
2023/07/18 08:34:36;;;;;;;2.15;0.73;;;30.20;84.50;;;;;;5000441;28;20217;-74
2023/07/18 08:37:05;;;;;;;1.50;0.60;;;30.10;85.30;;;;;;4997700;28;20211;-73
2023/07/18 08:39:32;;;;;;;0.75;0.40;;;30.20;85.00;;;;;;5007759;28;20211;-74
2023/07/18 08:41:59;;;;;;;2.45;0.70;;;30.20;83.80;;;;;;5008040;28;20273;-72
2023/07/18 08:44:26;;;;;;;1.65;0.80;;;30.20;84.00;;;;;;4998150;28;20257;-74
2023/07/18 08:46:54;;;;;;;2.35;0.85;;;30.40;84.30;;;;;;5004301;28;20243;-73
2023/07/18 08:49:25;;;;;;;1.55;0.68;;;30.30;84.30;;;;;;4992508;28;20202;-73
2023/07/18 08:51:52;;;;;;;2.75;0.82;;;30.10;83.10;;;;;;5004540;28;20206;-73
2023/07/18 08:54:19;;;;;;;1.33;0.70;;;30.10;83.50;;;;;;5009115;28;20214;-73
2023/07/18 08:56:46;;;;;;;3.05;0.90;;;30.30;83.60;;;;;;4990739;28;20223;-74
2023/07/18 08:59:14;;;;;;;1.30;0.85;;;30.20;83.20;;;;;;5000666;28;20221;-75
2023/07/18 09:01:48;;;;;;;1.50;0.63;;;30.20;82.80;;;;;;5009300;28;20219;-74
2023/07/18 09:04:16;;;;;;;1.85;0.90;;;30.30;81.70;;;;;;5002925;28;20202;-73
2023/07/18 09:06:48;;;;;;;3.20;1.38;;;30.20;82.40;;;;;;5000660;28;20362;-73
2023/07/18 09:09:17;;;;;;;1.58;1.00;;;30.30;82.50;;;;;;5006784;28;20285;-73
2023/07/18 09:11:58;;;;;;;2.75;0.93;;;30.30;82.00;;;;;;4994622;28;20221;-72
2023/07/18 09:14:32;;;;;;;3.08;1.20;;;30.20;81.50;;;;;;5007898;28;20210;-73
2023/07/18 09:17:03;;;;;;;1.98;1.02;;;30.10;82.10;;;;;;5002779;28;20585;-72
2023/07/18 09:19:45;;;;;;;1.75;0.90;;;30.00;82.10;;;;;;4998394;28;20644;-73
2023/07/18 09:22:13;;;;;;;1.30;0.90;;;30.00;83.50;;;;;;4992286;28;20633;-74
2023/07/18 09:24:41;;;;;;;2.35;1.05;;;29.80;83.20;;;;;;5008305;28;20210;-74
2023/07/18 09:27:16;;;;;;;1.55;0.73;;;29.60;82.40;;;;;;5011823;28;20234;-74
2023/07/18 09:29:48;;;;;;;1.42;0.77;;;29.60;82.10;;;;;;5009474;28;20264;-73
2023/07/18 09:32:19;;;;;;;2.10;1.10;;;29.40;81.60;;;;;;5010701;28;20203;-73
2023/07/18 09:34:53;;;;;;;1.80;1.10;;;29.30;81.20;;;;;;5003199;28;20214;-74
2023/07/18 09:37:21;;;;;;;2.80;1.58;;;29.30;80.50;;;;;;5008188;28;20225;-75
2023/07/18 09:39:48;;;;;;;1.60;1.35;;;29.20;81.30;;;;;;5003368;28;20207;-73
2023/07/18 09:42:19;;;;;;;2.17;1.40;;;29.20;82.20;;;;;;5008862;28;20226;-73
2023/07/18 09:44:49;;;;;;;2.15;1.65;;;29.30;83.20;;;;;;5003017;28;20206;-72
2023/07/18 09:47:19;;;;;;;3.80;1.90;;;29.40;82.90;;;;;;5009624;28;20244;-73
2023/07/18 09:49:46;;;;;;;4.57;2.25;;;29.10;82.90;;;;;;4998495;28;20320;-73
2023/07/18 09:52:15;;;;;;;4.50;2.22;;;28.80;83.90;;;;;;5008728;28;20738;-72
2023/07/18 09:54:43;;;;;;;2.65;1.80;;;29.00;84.10;;;;;;5006504;28;20316;-75
2023/07/18 09:57:12;;;;;;;3.25;1.80;;;29.00;83.00;;;;;;5009171;28;20234;-74
2023/07/18 09:59:39;;;;;;;2.00;1.33;;;29.00;82.60;;;;;;4998104;28;20198;-74
2023/07/18 10:02:10;;;;;;;4.38;1.63;;;29.00;81.80;;;;;;5008202;28;20245;-75
2023/07/18 10:04:38;;;;;;;2.58;1.85;;;28.90;82.60;;;;;;5011299;28;20216;-73
2023/07/18 10:07:10;;;;;;;4.97;2.05;;;28.60;83.00;;;;;;5010624;28;20679;-74
2023/07/18 10:09:38;;;;;;;3.95;1.80;;;28.70;83.90;;;;;;5002266;28;20672;-73
2023/07/18 10:12:09;;;;;;;3.60;1.83;;;28.90;84.80;;;;;;5010271;28;20612;-76
2023/07/18 10:14:42;;;;;;;4.05;1.88;;;29.00;85.30;;;;;;5009208;28;20214;-74
2023/07/18 10:17:09;;;;;;;4.82;1.50;;;29.10;84.70;;;;;;5010649;28;20203;-74
2023/07/18 10:19:47;;;;;;;3.40;1.70;;;29.10;84.20;;;;;;5003819;28;20221;-73
2023/07/18 10:22:27;;;;;;;2.92;1.20;;;29.10;84.50;;;;;;4985537;28;20242;-74
2023/07/18 10:25:00;;;;;;;4.20;1.27;;;29.00;83.20;;;;;;4998153;28;20229;-74
2023/07/18 10:27:42;;;;;;;2.20;1.30;;;29.00;83.40;;;;;;4990343;28;20246;-74
2023/07/18 10:30:13;;;;;;;2.53;1.15;;;29.10;83.40;;;;;;5004151;28;20696;-72
2023/07/18 10:32:42;;;;;;;3.45;1.40;;;29.10;83.40;;;;;;5010241;28;20210;-73
2023/07/18 10:35:11;;;;;;;2.10;1.40;;;28.80;83.20;;;;;;5011093;28;20216;-74
2023/07/18 10:37:43;;;;;;;2.30;1.38;;;28.50;83.10;;;;;;5007009;28;20569;-74
2023/07/18 10:40:30;;;;;;;2.60;1.20;;;28.50;85.80;;;;;;5009957;28;20283;-73
2023/07/18 10:42:57;;;;;;;2.38;1.10;;;28.60;85.80;;;;;;5002745;28;20251;-73
2023/07/18 10:45:24;;;;;;;1.95;1.20;;;28.70;87.40;;;;;;5009776;28;20273;-73
2023/07/18 10:47:51;;;;;;;2.08;0.90;;;28.80;89.90;;;;;;5005165;28;20687;-76
2023/07/18 10:50:18;;;;;;;2.45;1.20;;;29.00;90.00;;;;;;5009110;28;20203;-73
2023/07/18 10:52:46;;;;;;;3.03;1.42;;;28.90;91.20;;;;;;5008521;28;20687;-73
2023/07/18 10:55:15;;;;;;;1.58;0.80;;;28.30;85.70;;;;;;5009338;28;20629;-73
2023/07/18 10:57:42;;;;;;;2.53;1.10;;;28.10;85.90;;;;;;5003516;28;20333;-73
2023/07/18 11:00:10;;;;;;;1.63;0.90;;;28.00;87.20;;;;;;5000953;28;20221;-73
2023/07/18 11:02:41;;;;;;;2.78;1.20;;;28.10;87.00;;;;;;5005682;28;20221;-76
2023/07/18 11:05:11;;;;;;;2.90;1.70;;;28.20;86.50;;;;;;5000839;28;20686;-75
2023/07/18 11:07:44;;;;;;;3.58;1.35;;;28.30;86.00;;;;;;5005459;28;20308;-74
2023/07/18 11:10:13;;;;;;;1.15;1.05;;;28.20;86.10;;;;;;5008849;28;20214;-74
2023/07/18 11:12:41;;;;;;;4.05;1.40;;;28.40;86.80;;;;;;5007716;28;20288;-75
2023/07/18 11:15:10;;;;;;;4.28;1.23;;;28.40;86.60;;;;;;5007933;28;20214;-74
2023/07/18 11:17:41;;;;;;;1.33;0.85;;;28.60;86.90;;;;;;4998910;28;20214;-74
2023/07/18 11:20:11;;;;;;;2.38;1.35;;;28.90;86.20;;;;;;5008157;28;20222;-73
2023/07/18 11:22:38;;;;;;;2.38;0.90;;;29.10;86.90;;;;;;5007858;28;20211;-74
2023/07/18 11:25:06;;;;;;;2.10;1.25;;;29.30;85.90;;;;;;5004755;28;20297;-74
2023/07/18 11:27:33;;;;;;;1.75;0.98;;;29.60;86.20;;;;;;5005978;28;20706;-73
2023/07/18 11:30:01;;;;;;;1.98;1.08;;;29.60;85.40;;;;;;5006969;28;20207;-73
2023/07/18 11:32:39;;;;;;;2.88;1.00;;;29.70;87.00;;;;;;5002381;28;20219;-73
2023/07/18 11:35:09;;;;;;;2.08;1.00;;;29.70;85.60;;;;;;5006345;28;20285;-74
2023/07/18 11:37:39;;;;;;;2.03;1.00;;;29.60;85.70;;;;;;5008496;28;20221;-72
2023/07/18 11:40:20;;;;;;;2.70;1.10;;;29.50;86.50;;;;;;5008412;28;21056;-71
2023/07/18 11:42:57;;;;;;;2.03;0.90;;;29.20;86.50;;;;;;5005443;28;20235;-71
2023/07/18 11:45:25;;;;;;;4.78;0.93;;;28.50;87.00;;;;;;5007152;28;20213;-72
2023/07/18 11:47:54;;;;;;;2.92;0.93;;;28.10;86.30;;;;;;5007264;28;20729;-72
2023/07/18 11:50:25;;;;;;;2.45;1.00;;;;;;;;;;5001475;28;20682;-74
2023/07/18 11:52:57;;;;;;;3.88;1.23;;;27.40;86.90;;;;;;4998851;28;20246;-73
2023/07/18 11:55:25;;;;;;;1.80;0.90;;;27.50;89.10;;;;;;4999592;28;20244;-73
2023/07/18 11:57:51;;;;;;;2.47;0.82;;;27.50;89.00;;;;;;5004374;28;20312;-73
2023/07/18 12:00:19;;;;;;;7.03;1.80;;;27.30;88.40;;;;;;4999844;28;20214;-73
2023/07/18 12:02:47;;;;;;;10.50;2.65;;;27.30;87.90;;;;;;5004958;28;20204;-71
2023/07/18 12:05:16;;;;;;;5.88;1.20;;;27.20;88.10;;;;;;5005260;28;20207;-72
2023/07/18 12:07:44;;;;;;;11.13;2.20;;;27.20;87.20;;;;;;4992180;28;20226;-73
2023/07/18 12:10:14;;;;;;;79.50;14.45;;;27.30;88.90;;;;;;5007277;28;20206;-72
2023/07/18 12:12:41;;;;;;;274.38;40.20;;;27.50;89.30;;;;;;5001637;28;20228;-72
2023/07/18 12:15:09;;;;;;;7.10;1.80;;;27.80;88.30;;;;;;5007508;28;20953;-72
2023/07/18 12:17:38;;;;;;;3.60;1.58;;;28.10;86.70;;;;;;5002713;28;20211;-71
2023/07/18 12:20:09;;;;;;;8.32;1.80;;;28.30;86.10;;;;;;5007341;28;20659;-75
2023/07/18 12:22:37;;;;;;;7.45;1.20;;;28.30;85.70;;;;;;4991388;28;20206;-74
2023/07/18 12:25:04;;;;;;;2.40;1.10;;;28.30;86.30;;;;;;4992465;28;20704;-72
2023/07/18 12:27:31;;;;;;;3.15;0.70;;;28.50;86.10;;;;;;5009671;28;20236;-73
2023/07/18 12:29:58;;;;;;;3.28;1.08;;;28.60;86.40;;;;;;5007971;28;20603;-73
2023/07/18 12:32:25;;;;;;;2.95;0.80;;;28.80;85.40;;;;;;5007076;28;20214;-72
2023/07/18 12:34:57;;;;;;;2.80;1.00;;;29.10;85.50;;;;;;4992459;28;20202;-74
2023/07/18 12:37:24;;;;;;;1.63;0.73;;;29.30;84.10;;;;;;5005114;28;20210;-73
2023/07/18 12:39:50;;;;;;;3.63;1.05;;;29.50;83.20;;;;;;5010620;28;20195;-74
2023/07/18 12:42:17;;;;;;;2.00;1.00;;;29.40;82.80;;;;;;5004022;28;20277;-72
2023/07/18 12:44:45;;;;;;;1.30;0.52;;;29.30;82.00;;;;;;5004039;28;20262;-72
2023/07/18 12:47:12;;;;;;;1.67;0.80;;;29.40;81.50;;;;;;5007228;28;20226;-72
2023/07/18 12:49:39;;;;;;;1.45;0.70;;;29.40;81.10;;;;;;5004427;28;21100;-72
2023/07/18 12:52:09;;;;;;;2.60;0.80;;;29.40;80.00;;;;;;5007357;28;20599;-72
2023/07/18 12:54:35;;;;;;;2.05;0.82;;;29.20;79.70;;;;;;4989080;28;20221;-72